Nearby METAR Reports

 

KCFV - Coffeyville, Kansas, USA
Distance from station: ENE 93mi, 150km
Updated: Mon, 09-16-2019 2:52am CDT
Clear
Clear
 Wind from ESE
Wind: ESE 3 mph , 6 km/h
Temperature: 70°F , 21°C
Dew Point: 66°F , 19°C
Humidity: 88%
Barometer: 1017.9 hPa
Clouds: Clear
Visibility: 10 miles , 16 km
2019/09/16 07:52 KCFV 160752Z AUTO 12003KT 10SM CLR 21/19 A3006 RMK AO2 SLP170 T02060194 $
KIDP - Independence, Kansas, USA
Distance from station: NE 86mi, 138km
Updated: Mon, 09-16-2019 2:55am CDT
Mist, Clear
Mist, Clear
 Wind from calm
Wind: Calm
Temperature: 70°F , 21°C
Dew Point: 68°F , 20°C
Humidity: 94%
Barometer: 1018.6 hPa
Summary: Mist
Clouds: Clear
Visibility: 7 miles , 11 km
2019/09/16 07:55 KIDP 160755Z AUTO 00000KT 7SM BR CLR 21/20 A3008 RMK AO2 T02070203
KIAB - Mcconnell Afb, Kansas, USA
Distance from station: N 84mi, 135km
Updated: Mon, 09-16-2019 2:56am CDT
Clear
Clear
 Wind from SE
Wind: SE 7 mph , 11 km/h
Temperature: 73°F , 23°C
Dew Point: 64°F , 18°C
Humidity: 74%
Barometer: 1018.3 hPa
Clouds: Clear
Visibility: 10 miles , 16 km
2019/09/16 07:56 KIAB 160756Z AUTO 13006KT 10SM CLR 23/18 A3007 RMK AO2 SLP170 T02260181 $
 
KICT - Wichita, Kansas, USA
Distance from station: NNW 88mi, 142km
Updated: Mon, 09-16-2019 2:53am CDT
Clear
Clear
 Wind from S
Wind: S 5 mph , 7 km/h
Temperature: 72°F , 22°C
Dew Point: 66°F , 19°C
Humidity: 83%
Barometer: 1017.9 hPa
Clouds: Clear
Visibility: 9 miles , 14 km
2019/09/16 07:53 KICT 160753Z 19004KT 9SM CLR 22/19 A3006 RMK AO2 SLP164 T02170189 $
KAAO - Wichita/Jabara, Kansas, USA
Distance from station: N 93mi, 149km
Updated: Mon, 09-16-2019 2:54am CDT
Clear
Clear
 Wind from SSE
Wind: SSE 6 mph , 9 km/h
Temperature: 72°F , 22°C
Dew Point: 66°F , 19°C
Humidity: 83%
Barometer: 1018.3 hPa
Clouds: Clear
Visibility: 10 miles , 16 km
2019/09/16 07:54 KAAO 160754Z AUTO 16005KT 10SM CLR 22/19 A3007 RMK AO2 SLP166 T02220194 $
KWLD - Winfield/Arkansa, Kansas, USA
Distance from station: N 52mi, 84km
Updated: Mon, 09-16-2019 2:54am CDT
Clear
Clear
 Wind from SSE
Wind: SSE 6 mph , 9 km/h
Temperature: 72°F , 22°C
Dew Point: 68°F , 20°C
Humidity: 88%
Barometer: 1018.6 hPa
Clouds: Clear
Visibility: 10 miles , 16 km
2019/09/16 07:54 KWLD 160754Z AUTO 16005KT 10SM CLR 22/20 A3008 RMK AO2 SLP172 T02220200 $
 
KAVK - Alva, Oklahoma, USA
Distance from station: WNW 94mi, 152km
Updated: Mon, 09-16-2019 2:55am CDT
Partly cloudy
Partly cloudy
 Wind from S
Wind: S 9 mph , 15 km/h
Temperature: 70°F , 21°C
Dew Point: 63°F , 17°C
Humidity: 78%
Barometer: 1017.9 hPa
Clouds: Partly cloudy
Visibility: 10 miles , 16 km
Cloud details: Few Clouds 4900 ft
Partly cloudy 5500 ft
2019/09/16 07:55 KAVK 160755Z AUTO 17008KT 10SM FEW049 SCT055 21/17 A3006 RMK AO2
KBVO - Bartlesville, Oklahoma, USA
Distance from station: ENE 61mi, 98km
Updated: Mon, 09-16-2019 3:10am CDT
Mist, Clear
Mist, Clear
 Wind from calm
Wind: Calm
Temperature: 68°F , 20°C
Dew Point: 66°F , 19°C
Humidity: 94%
Barometer: 1018.3 hPa
Summary: Mist
Clouds: Clear
Visibility: 2 1/2 miles , 4 km
2019/09/16 08:10 KBVO 160810Z AUTO 00000KT 2 1/2SM BR CLR 20/19 A3007 RMK AO2 VIS 1 1/2V4 T02000194
KBKN - Blackwell, Oklahoma, USA
Distance from station: NW 29mi, 47km
Updated: Mon, 09-16-2019 2:55am CDT
Clear
Clear
 Wind from S
Wind: S 8 mph , 13 km/h
Temperature: 75°F , 24°C
Dew Point: 73°F , 23°C
Humidity: 94%
Barometer: 1018.6 hPa
Clouds: Clear
Visibility: 10 miles , 16 km
2019/09/16 07:55 KBKN 160755Z AUTO 17007KT 10SM CLR 24/23 A3008 RMK AO2
 
KGCM - Claremore, Oklahoma, USA
Distance from station: E 86mi, 138km
Updated: Mon, 09-16-2019 2:55am CDT
Clear
Clear
 Wind from ESE
Wind: ESE 3 mph , 6 km/h
Temperature: 70°F , 21°C
Dew Point: 68°F , 20°C
Humidity: 94%
Barometer: 1018.6 hPa
Clouds: Clear
Visibility: 10 miles , 16 km
2019/09/16 07:55 KGCM 160755Z AUTO 11003KT 10SM CLR 21/20 A3008 RMK AO2
KCQB - Chandler, Oklahoma, USA
Distance from station: SSE 50mi, 80km
Updated: Mon, 09-16-2019 2:55am CDT
Clear
Clear
 Wind from SSE
Wind: SSE 5 mph , 7 km/h
Temperature: 73°F , 23°C
Dew Point: 70°F , 21°C
Humidity: 89%
Barometer: 1018.6 hPa
Clouds: Clear
Visibility: 10 miles , 16 km
2019/09/16 07:55 KCQB 160755Z AUTO 16004KT 10SM CLR 23/21 A3008 RMK AO2 T02310206
KCUH - Cushing, Oklahoma, USA
Distance from station: SSE 35mi, 57km
Updated: Mon, 09-16-2019 2:55am CDT
Clear
Clear
 Wind from calm
Wind: Calm
Barometer: 1017.9 hPa
Clouds: Clear
Visibility: 10 miles , 16 km
2019/09/16 07:55 KCUH 160755Z AUTO 00000KT 10SM CLR A3006 RMK AO2
 
KRQO - El Reno Muni, Oklahoma, USA
Distance from station: SW 85mi, 137km
Updated: Mon, 09-16-2019 2:55am CDT
Clear
Clear
 Wind from SSE
Wind: SSE 9 mph , 15 km/h
Temperature: 72°F , 22°C
Dew Point: 66°F , 19°C
Humidity: 83%
Barometer: 1019 hPa
Clouds: Clear
Visibility: 7 miles , 11 km
2019/09/16 07:55 KRQO 160755Z AUTO 15008KT 7SM CLR 22/19 A3009 RMK AO2 T02170191
KEND - Enid/Vance Afb, Oklahoma, USA
Distance from station: W 50mi, 81km
Updated: Mon, 09-16-2019 2:56am CDT
Clear
Clear
 Wind from ESE
Wind: ESE 8 mph , 13 km/h
Temperature: 73°F , 23°C
Dew Point: 73°F , 23°C
Humidity: 100%
Barometer: 1017.9 hPa
Clouds: Clear
Visibility: 10 miles , 16 km
2019/09/16 07:56 KEND 160756Z AUTO 12007KT 10SM CLR 23/23 A3006 RMK AO2 SLP166 T02250225 $
KWDG - Enid/Woodring, Oklahoma, USA
Distance from station: W 42mi, 67km
Updated: Mon, 09-16-2019 2:55am CDT
Clear
Clear
 Wind from calm
Wind: Calm
Temperature: 70°F , 21°C
Dew Point: 68°F , 20°C
Humidity: 94%
Barometer: 1017.9 hPa
Clouds: Clear
Visibility: 7 miles , 11 km
2019/09/16 07:55 KWDG 160755Z AUTO 00000KT 7SM CLR 21/20 A3006 RMK AO2
 
KGOK - Guthrie, Oklahoma, USA
Distance from station: SSW 44mi, 71km
Updated: Mon, 09-16-2019 2:53am CDT
Clear
Clear
 Wind from SE
Wind: SE 7 mph , 11 km/h
Temperature: 75°F , 24°C
Dew Point: 68°F , 20°C
Humidity: 78%
Barometer: 1017.9 hPa
Clouds: Clear
Visibility: 10 miles , 16 km
2019/09/16 07:53 KGOK 160753Z AUTO 14006KT 10SM CLR 24/20 A3006 RMK AO2 SLP169 T02390200
KOUN - Norman/Westheime, Oklahoma, USA
Distance from station: SSW 84mi, 136km
Updated: Mon, 09-16-2019 2:50am CDT
Clear
Clear
 Wind from calm
Wind: Calm
Temperature: 75°F , 24°C
Dew Point: 66°F , 19°C
Humidity: 74%
Barometer: 1017.9 hPa
Clouds: Clear
Visibility: 10 miles , 16 km
2019/09/16 07:50 KOUN 160750Z AUTO 00000KT 10SM CLR 24/19 A3006 RMK AO2 T02360189
KOKC - Oklahoma City, Oklahoma, USA
Distance from station: SSW 78mi, 126km
Updated: Mon, 09-16-2019 2:52am CDT
Few Clouds
Few Clouds
 Wind from SE
Wind: SE 7 mph , 11 km/h
Temperature: 72°F , 22°C
Dew Point: 68°F , 20°C
Humidity: 88%
Barometer: 1018.6 hPa
Clouds: Few Clouds
Visibility: 10 miles , 16 km
Cloud details: Few Clouds 25000 ft
2019/09/16 07:52 KOKC 160752Z 14006KT 10SM FEW250 22/20 A3008 RMK AO2 SLP170 T02170200
 
KPWA - Okla City/Wiley, Oklahoma, USA
Distance from station: SSW 70mi, 113km
Updated: Mon, 09-16-2019 2:53am CDT
Clear
Clear
 Wind from SSE
Wind: SSE 8 mph , 13 km/h
Temperature: 79°F , 26°C
Dew Point: 66°F , 19°C
Humidity: 65%
Barometer: 1018.6 hPa
Clouds: Clear
Visibility: 10 miles , 16 km
2019/09/16 07:53 KPWA 160753Z AUTO 15007KT 10SM CLR 26/19 A3008 RMK AO2 SLP166 T02560194 $
KRCE - Okla City/Page, Oklahoma, USA
Distance from station: SW 78mi, 126km
Updated: Mon, 09-16-2019 3:15am CDT
Clear
Clear
 Wind from SE
Wind: SE 8 mph , 13 km/h
Temperature: 72°F , 22°C
Dew Point: 66°F , 19°C
Humidity: 83%
Barometer: 1018.6 hPa
Clouds: Clear
Visibility: 10 miles , 16 km
2019/09/16 08:15 KRCE 160815Z AUTO 14007KT 10SM CLR 22/19 A3008 RMK AO2
KOKM - Okmulgee, Oklahoma, USA
Distance from station: SE 79mi, 127km
Updated: Mon, 09-16-2019 2:55am CDT
Clear
Clear
 Wind from calm
Wind: Calm
Temperature: 72°F , 22°C
Dew Point: 72°F , 22°C
Humidity: 100%
Barometer: 1018.3 hPa
Clouds: Clear
Visibility: 10 miles , 16 km
2019/09/16 07:55 KOKM 160755Z AUTO 00000KT 10SM CLR 22/22 A3007 RMK AO2 T02150215
 
KPNC - Ponca City, Oklahoma, USA
Distance from station: N 22mi, 36km
Updated: Mon, 09-16-2019 2:53am CDT
Clear
Clear
 Wind from SSE
Wind: SSE 8 mph , 13 km/h
Temperature: 75°F , 24°C
Dew Point: 66°F , 19°C
Humidity: 74%
Barometer: 1017.9 hPa
Clouds: Clear
Visibility: 10 miles , 16 km
2019/09/16 07:53 KPNC 160753Z AUTO 16007KT 10SM CLR 24/19 A3006 RMK AO2 SLP164 T02440194
KSNL - Shawnee, Oklahoma, USA
Distance from station: S 74mi, 119km
Updated: Mon, 09-16-2019 2:55am CDT
Clear
Clear
 Wind from SSE
Wind: SSE 6 mph , 9 km/h
Temperature: 75°F , 24°C
Dew Point: 68°F , 20°C
Humidity: 78%
Barometer: 1018.6 hPa
Clouds: Clear
Visibility: 10 miles , 16 km
2019/09/16 07:55 KSNL 160755Z AUTO 15005KT 10SM CLR 24/20 A3008 RMK AO2 T02380200
KSWO - Stillwater, Oklahoma, USA
Distance from station: S 17mi, 28km
Updated: Mon, 09-16-2019 2:53am CDT
Clear
Clear
 Wind from SSE
Wind: SSE 7 mph , 11 km/h
Temperature: 75°F , 24°C
Dew Point: 68°F , 20°C
Humidity: 78%
Barometer: 1017.9 hPa
Clouds: Clear
Visibility: 10 miles , 16 km
2019/09/16 07:53 KSWO 160753Z AUTO 16006KT 10SM CLR 24/20 A3006 RMK AO2 SLP164 T02440200
 
KTIK - Tinker Afb, Oklahoma, USA
Distance from station: SSW 72mi, 115km
Updated: Mon, 09-16-2019 2:56am CDT
Clear
Clear
 Wind from SE
Wind: SE 6 mph , 9 km/h
Temperature: 75°F , 24°C
Dew Point: 66°F , 19°C
Humidity: 74%
Barometer: 1018.6 hPa
Clouds: Clear
Visibility: 10 miles , 16 km
2019/09/16 07:56 KTIK 160756Z AUTO 13005KT 10SM CLR 24/19 A3008 RMK AO2 SLP177 T02350188
KTUL - Tulsa, Oklahoma, USA
Distance from station: ESE 65mi, 105km
Updated: Mon, 09-16-2019 2:53am CDT
Clear
Clear
 Wind from calm
Wind: Calm
Temperature: 75°F , 24°C
Dew Point: 72°F , 22°C
Humidity: 89%
Barometer: 1017.6 hPa
Clouds: Clear
Visibility: 10 miles , 16 km
2019/09/16 07:53 KTUL 160753Z 00000KT 10SM CLR 24/22 A3005 RMK AO2 SLP166 T02440217 $